createdAt,value
2022-10-10T00:01:23.355Z,16.43
2022-10-10T00:03:50.467Z,17.57
2022-10-10T00:06:19.821Z,17.23
2022-10-10T00:08:46.866Z,17.80
2022-10-10T00:11:15.005Z,16.90
2022-10-10T00:13:42.408Z,16.77
2022-10-10T00:16:09.878Z,17.43
2022-10-10T00:18:37.613Z,17.60
2022-10-10T00:21:04.988Z,16.87
2022-10-10T00:23:31.843Z,18.57
2022-10-10T00:25:59.259Z,20.10
2022-10-10T00:28:29.578Z,18.13
2022-10-10T00:30:56.509Z,19.97
2022-10-10T00:33:23.415Z,20.00
2022-10-10T00:35:50.274Z,17.93
2022-10-10T00:38:17.129Z,19.43
2022-10-10T00:40:46.624Z,19.67
2022-10-10T00:43:14.845Z,19.73
2022-10-10T00:45:44.557Z,19.77
2022-10-10T00:48:16.261Z,18.93
2022-10-10T00:50:54.581Z,18.87
2022-10-10T00:53:25.838Z,19.90
2022-10-10T00:55:54.319Z,19.63
2022-10-10T00:58:21.934Z,19.20
2022-10-10T01:00:50.112Z,19.97
2022-10-10T01:03:16.990Z,19.77
2022-10-10T01:05:45.932Z,20.63
2022-10-10T01:08:13.283Z,19.03
2022-10-10T01:11:12.363Z,18.07
2022-10-10T01:13:52.740Z,18.03
2022-10-10T01:16:33.101Z,18.33
2022-10-10T01:19:24.219Z,17.87
2022-10-10T01:22:08.200Z,17.93
2022-10-10T01:25:05.939Z,17.50
2022-10-10T01:27:39.464Z,17.87
2022-10-10T01:30:10.167Z,20.00
2022-10-10T01:32:50.109Z,17.10
2022-10-10T01:35:23.085Z,18.57
2022-10-10T01:38:19.794Z,18.67
2022-10-10T01:40:59.697Z,17.60
2022-10-10T01:43:26.702Z,16.90
2022-10-10T01:45:54.445Z,17.07
2022-10-10T01:48:28.721Z,15.10
2022-10-10T01:51:10.678Z,16.27
2022-10-10T01:53:55.218Z,16.13
2022-10-10T01:56:52.985Z,15.30
2022-10-10T01:59:37.943Z,13.97
2022-10-10T02:02:23.421Z,15.63
2022-10-10T02:05:00.814Z,17.00
2022-10-10T02:07:34.363Z,14.77
2022-10-10T02:10:05.263Z,15.70
2022-10-10T02:12:34.428Z,15.63
2022-10-10T02:15:12.933Z,14.80
2022-10-10T02:17:43.001Z,15.40
2022-10-10T02:20:13.237Z,15.33
2022-10-10T02:22:43.132Z,15.87
2022-10-10T02:25:10.783Z,16.77
2022-10-10T02:27:44.755Z,16.33
2022-10-10T02:30:12.753Z,16.27
2022-10-10T02:32:47.139Z,14.43
2022-10-10T02:35:22.367Z,15.50
2022-10-10T02:37:51.741Z,15.53
2022-10-10T02:40:24.349Z,17.00
2022-10-10T02:42:53.697Z,16.57
2022-10-10T02:45:22.681Z,15.57
2022-10-10T02:47:50.720Z,15.53
2022-10-10T02:50:17.674Z,15.60
2022-10-10T02:52:44.508Z,16.93
2022-10-10T02:55:11.358Z,15.97
2022-10-10T02:57:38.296Z,16.13
2022-10-10T03:00:06.609Z,16.10
2022-10-10T03:02:33.577Z,14.13
2022-10-10T03:05:00.594Z,15.53
2022-10-10T03:07:27.335Z,16.10
2022-10-10T03:09:54.196Z,15.80
2022-10-10T03:12:21.008Z,17.50
2022-10-10T03:14:47.836Z,16.73
2022-10-10T03:17:14.810Z,16.73
2022-10-10T03:19:41.719Z,16.40
2022-10-10T03:22:08.668Z,16.70
2022-10-10T03:24:35.491Z,17.30
2022-10-10T03:27:02.459Z,16.47
2022-10-10T03:29:29.405Z,16.73
2022-10-10T03:31:56.235Z,14.47
2022-10-10T03:34:23.167Z,17.27
2022-10-10T03:36:49.958Z,17.20
2022-10-10T03:39:17.132Z,17.47
2022-10-10T03:41:44.033Z,15.70
2022-10-10T03:44:10.892Z,16.33
2022-10-10T03:46:37.741Z,15.60
2022-10-10T03:49:04.659Z,17.33
2022-10-10T03:51:31.507Z,15.70
2022-10-10T03:53:58.338Z,16.10
2022-10-10T03:56:25.259Z,17.43
2022-10-10T03:58:52.113Z,16.20
2022-10-10T04:01:19.081Z,16.03
2022-10-10T04:03:51.263Z,16.57
2022-10-10T04:06:19.498Z,15.17
2022-10-10T04:08:46.466Z,15.77
2022-10-10T04:11:13.710Z,16.30
2022-10-10T04:13:40.542Z,14.80
2022-10-10T04:16:07.438Z,17.17
2022-10-10T04:18:34.250Z,17.10
2022-10-10T04:21:05.652Z,15.30
2022-10-10T04:23:32.609Z,15.07
2022-10-10T04:25:59.616Z,15.67
2022-10-10T04:28:26.601Z,15.13
2022-10-10T04:30:56.229Z,15.80
2022-10-10T04:33:23.134Z,15.20
2022-10-10T04:35:50.440Z,15.83
2022-10-10T04:38:18.469Z,15.63
2022-10-10T04:40:45.365Z,16.00
2022-10-10T04:43:12.142Z,16.57
2022-10-10T04:45:39.341Z,16.27
2022-10-10T04:48:06.179Z,16.47
2022-10-10T04:50:33.263Z,16.53
2022-10-10T04:53:00.172Z,17.80
2022-10-10T04:55:27.009Z,16.53
2022-10-10T04:57:55.825Z,17.80
2022-10-10T05:00:22.685Z,16.10
2022-10-10T05:02:49.741Z,16.60
2022-10-10T05:05:16.953Z,17.30
2022-10-10T05:07:43.788Z,17.90
2022-10-10T05:10:10.666Z,17.83
2022-10-10T05:12:39.639Z,15.60
2022-10-10T05:15:06.961Z,16.53
2022-10-10T05:17:33.761Z,17.93
2022-10-10T05:20:00.589Z,17.10
2022-10-10T05:22:27.380Z,17.90
2022-10-10T05:24:54.260Z,17.00
2022-10-10T05:27:21.039Z,15.47
2022-10-10T05:29:47.826Z,16.30
2022-10-10T05:32:14.612Z,16.30
2022-10-10T05:34:41.655Z,16.53
2022-10-10T05:37:08.709Z,15.93
2022-10-10T05:39:35.650Z,16.43
2022-10-10T05:42:03.105Z,15.90
2022-10-10T05:44:29.923Z,15.70
2022-10-10T05:46:56.871Z,15.67
2022-10-10T05:49:23.721Z,15.00
2022-10-10T05:51:50.519Z,14.93
2022-10-10T05:54:17.328Z,15.33
2022-10-10T05:56:44.309Z,15.37
2022-10-10T05:59:11.229Z,15.30
2022-10-10T06:01:39.922Z,14.87
2022-10-10T06:04:09.082Z,14.40
2022-10-10T06:06:35.996Z,13.73
2022-10-10T06:09:03.436Z,14.20
2022-10-10T06:11:30.313Z,14.30
2022-10-10T06:13:57.398Z,14.83
2022-10-10T06:16:26.177Z,14.73
2022-10-10T06:18:53.849Z,13.50
2022-10-10T06:21:20.654Z,14.10
2022-10-10T06:23:47.435Z,15.13
2022-10-10T06:26:14.256Z,15.50
2022-10-10T06:28:41.277Z,14.67
2022-10-10T06:31:10.709Z,14.47
2022-10-10T06:33:37.675Z,14.60
2022-10-10T06:36:07.456Z,14.17
2022-10-10T06:38:41.925Z,14.53
2022-10-10T06:41:09.491Z,14.93
2022-10-10T06:43:36.656Z,14.20
2022-10-10T06:46:04.469Z,13.67
2022-10-10T06:48:32.213Z,14.10
2022-10-10T06:51:01.324Z,14.83
2022-10-10T06:53:28.910Z,13.33
2022-10-10T06:55:56.598Z,13.80
2022-10-10T06:58:24.956Z,14.13
2022-10-10T07:00:57.772Z,13.13
2022-10-10T07:03:25.134Z,13.50
2022-10-10T07:05:58.046Z,14.20
2022-10-10T07:08:25.633Z,12.57
2022-10-10T07:10:52.938Z,14.00
2022-10-10T07:13:20.287Z,13.90
2022-10-10T07:15:47.332Z,13.80
2022-10-10T07:18:14.593Z,14.03
2022-10-10T07:20:41.984Z,13.80
2022-10-10T07:23:09.031Z,13.63
2022-10-10T07:25:41.810Z,14.17
2022-10-10T07:28:09.378Z,14.13
2022-10-10T07:30:41.222Z,13.97
2022-10-10T07:33:08.083Z,14.13
2022-10-10T07:35:35.179Z,13.47
2022-10-10T07:38:02.141Z,13.80
2022-10-10T07:40:29.099Z,15.07
2022-10-10T07:42:56.334Z,15.00
2022-10-10T07:45:23.381Z,13.83
2022-10-10T07:47:53.207Z,15.03
2022-10-10T07:50:20.394Z,13.97
2022-10-10T07:52:47.553Z,15.40
2022-10-10T07:55:17.442Z,14.80
2022-10-10T07:57:53.159Z,15.10
2022-10-10T08:00:20.639Z,14.87
2022-10-10T08:02:47.688Z,15.50
2022-10-10T08:05:14.619Z,15.87
2022-10-10T08:07:41.595Z,15.93
2022-10-10T08:10:09.958Z,15.57
2022-10-10T08:12:36.904Z,15.10
2022-10-10T08:15:06.149Z,16.87
2022-10-10T08:17:33.240Z,15.43
2022-10-10T08:20:00.248Z,15.80
2022-10-10T08:22:27.320Z,15.90
2022-10-10T08:24:54.329Z,14.73
2022-10-10T08:27:21.385Z,14.80
2022-10-10T08:29:48.282Z,14.87
2022-10-10T08:32:15.150Z,15.65
2022-10-10T08:34:42.077Z,14.23
2022-10-10T08:37:08.957Z,16.10
2022-10-10T08:39:35.799Z,15.55
2022-10-10T08:42:03.668Z,15.30
2022-10-10T08:44:43.659Z,14.73
2022-10-10T08:47:16.574Z,14.63
2022-10-10T08:49:57.835Z,15.20
2022-10-10T08:52:42.744Z,14.82
2022-10-10T08:55:19.294Z,14.27
2022-10-10T08:57:49.376Z,14.15
2022-10-10T09:00:21.269Z,14.18
2022-10-10T09:02:55.106Z,14.13
2022-10-10T09:05:38.277Z,13.98
2022-10-10T09:08:14.192Z,14.20
2022-10-10T09:11:00.225Z,14.18
2022-10-10T09:13:39.653Z,12.77
2022-10-10T09:16:28.306Z,13.48
2022-10-10T09:19:24.416Z,13.10
2022-10-10T09:21:57.164Z,13.85
2022-10-10T09:24:32.467Z,13.65
2022-10-10T09:27:05.314Z,13.70
2022-10-10T09:29:58.079Z,13.10
2022-10-10T09:32:33.863Z,13.60
2022-10-10T09:35:14.582Z,12.65
2022-10-10T09:37:47.294Z,13.27
2022-10-10T09:40:18.542Z,13.70
2022-10-10T09:42:45.780Z,13.25
2022-10-10T09:45:32.964Z,13.30
2022-10-10T09:47:59.854Z,13.70
2022-10-10T09:50:27.115Z,13.57
2022-10-10T09:52:56.446Z,14.00
2022-10-10T09:55:36.020Z,13.82
2022-10-10T09:58:20.293Z,13.82
2022-10-10T10:00:47.341Z,12.73
2022-10-10T10:03:19.838Z,14.10
2022-10-10T10:05:56.463Z,13.35
2022-10-10T10:08:27.703Z,13.75
2022-10-10T10:10:58.694Z,12.88
2022-10-10T10:13:34.506Z,12.73
2022-10-10T10:16:10.530Z,12.55
2022-10-10T10:18:46.687Z,11.70
2022-10-10T10:21:17.189Z,12.60
2022-10-10T10:24:00.529Z,11.07
2022-10-10T10:26:42.534Z,11.68
2022-10-10T10:29:35.844Z,11.32
2022-10-10T10:32:13.127Z,11.18
2022-10-10T10:34:48.467Z,11.55
2022-10-10T10:37:18.929Z,11.32
2022-10-10T10:40:23.498Z,11.02
2022-10-10T10:43:17.242Z,10.73
2022-10-10T10:46:08.750Z,10.98
2022-10-10T10:48:58.536Z,11.10
2022-10-10T10:52:05.306Z,10.43
2022-10-10T10:54:54.290Z,10.98
2022-10-10T10:57:32.847Z,11.35
2022-10-10T11:00:20.685Z,10.85
2022-10-10T11:03:35.136Z,10.70
2022-10-10T11:06:01.742Z,10.00
2022-10-10T11:08:37.038Z,10.18
2022-10-10T11:11:20.724Z,9.80
2022-10-10T11:14:02.573Z,9.93
2022-10-10T11:19:32.575Z,10.20
2022-10-10T11:22:06.401Z,10.52
2022-10-10T11:25:15.472Z,10.85
2022-10-10T11:27:57.530Z,11.35
2022-10-10T11:30:26.828Z,10.98
2022-10-10T11:33:17.281Z,11.15
2022-10-10T11:35:55.171Z,11.18
2022-10-10T11:38:25.100Z,10.93
2022-10-10T11:41:12.646Z,11.07
2022-10-10T11:43:45.088Z,12.52
2022-10-10T11:46:21.662Z,12.30
2022-10-10T11:48:55.399Z,11.68
2022-10-10T11:51:32.847Z,12.70
2022-10-10T11:54:05.620Z,13.30
2022-10-10T11:56:41.526Z,12.63
2022-10-10T11:59:25.802Z,13.10
2022-10-10T12:04:36.921Z,14.20
2022-10-10T12:07:11.761Z,13.27
2022-10-10T12:09:44.307Z,14.10
2022-10-10T12:12:18.902Z,14.23
2022-10-10T12:14:53.939Z,14.48
2022-10-10T12:17:25.919Z,14.48
2022-10-10T12:19:53.204Z,13.68
2022-10-10T12:22:26.101Z,15.45
2022-10-10T12:25:36.154Z,15.13
2022-10-10T12:28:15.170Z,14.80
2022-10-10T12:30:58.587Z,15.20
2022-10-10T12:33:28.784Z,14.20
2022-10-10T12:35:55.614Z,15.73
2022-10-10T12:38:23.652Z,15.02
2022-10-10T12:41:13.143Z,15.05
2022-10-10T12:43:43.073Z,15.93
2022-10-10T12:46:32.034Z,15.88
2022-10-10T12:49:04.550Z,16.63
2022-10-10T12:51:34.570Z,17.30
2022-10-10T12:54:04.963Z,17.38
2022-10-10T12:56:35.865Z,18.48
2022-10-10T12:59:03.194Z,18.83
2022-10-10T13:01:44.164Z,19.20
2022-10-10T13:04:16.352Z,18.90
2022-10-10T13:06:45.321Z,19.90
2022-10-10T13:09:20.054Z,19.73
2022-10-10T13:11:58.733Z,21.15
2022-10-10T13:14:28.002Z,21.42
2022-10-10T13:16:54.919Z,22.88
2022-10-10T13:19:25.532Z,22.02
2022-10-10T13:21:54.854Z,23.90
2022-10-10T13:24:31.712Z,23.10
2022-10-10T13:26:58.794Z,24.92
2022-10-10T13:29:38.586Z,26.00
2022-10-10T13:32:08.714Z,25.17
2022-10-10T13:34:43.714Z,26.48
2022-10-10T13:37:16.990Z,27.02
2022-10-10T13:39:44.551Z,28.77
2022-10-10T13:42:29.416Z,31.80
2022-10-10T13:44:59.263Z,25.63
2022-10-10T13:47:53.892Z,19.27
2022-10-10T13:50:32.999Z,18.83
2022-10-10T13:53:28.351Z,19.15
2022-10-10T13:56:20.234Z,20.60
2022-10-10T13:58:57.227Z,20.15
2022-10-10T14:01:27.111Z,20.95
2022-10-10T14:04:04.688Z,19.98
2022-10-10T14:06:32.555Z,18.20
2022-10-10T14:09:24.670Z,19.00
2022-10-10T14:11:53.865Z,17.95
2022-10-10T14:14:25.353Z,17.35
2022-10-10T14:17:02.907Z,17.20
2022-10-10T14:19:31.070Z,16.05
2022-10-10T14:21:57.912Z,15.35
2022-10-10T14:24:25.370Z,16.20
2022-10-10T14:26:52.485Z,17.52
2022-10-10T14:29:20.032Z,15.80
2022-10-10T14:31:47.418Z,15.50
2022-10-10T14:34:15.288Z,16.70
2022-10-10T14:36:48.033Z,16.42
2022-10-10T14:39:19.486Z,15.70
2022-10-10T14:41:46.912Z,16.05
2022-10-10T14:44:13.917Z,15.75
2022-10-10T14:46:41.639Z,15.02
2022-10-10T14:49:17.560Z,15.32
2022-10-10T14:51:44.427Z,13.05
2022-10-10T14:54:13.631Z,13.32
2022-10-10T14:57:07.009Z,13.50
2022-10-10T14:59:48.982Z,12.00
2022-10-10T15:02:21.676Z,13.52
2022-10-10T15:04:49.464Z,13.10
2022-10-10T15:07:17.012Z,13.38
2022-10-10T15:12:38.221Z,12.07
2022-10-10T15:15:06.071Z,12.02
2022-10-10T15:17:34.513Z,10.45
2022-10-10T15:20:02.826Z,8.52
2022-10-10T15:22:30.548Z,7.22
2022-10-10T15:24:57.469Z,6.78
2022-10-10T15:27:24.761Z,7.07
2022-10-10T15:29:51.607Z,6.10
2022-10-10T15:32:18.456Z,6.40
2022-10-10T15:34:49.178Z,5.93
2022-10-10T15:37:16.294Z,5.38
2022-10-10T15:39:44.823Z,5.22
2022-10-10T15:42:17.316Z,4.88
2022-10-10T15:44:48.891Z,4.90
2022-10-10T15:47:17.384Z,5.37
2022-10-10T15:49:44.371Z,4.93
2022-10-10T15:52:11.238Z,5.97
2022-10-10T15:54:38.427Z,6.03
2022-10-10T15:57:05.549Z,5.25
2022-10-10T15:59:32.388Z,5.45
2022-10-10T16:01:59.384Z,6.55
2022-10-10T16:04:26.566Z,6.95
2022-10-10T16:07:19.301Z,8.60
2022-10-10T16:09:41.221Z,9.32
2022-10-10T16:12:08.286Z,9.85
2022-10-10T16:14:35.313Z,9.48
2022-10-10T16:17:02.128Z,9.45
2022-10-10T16:19:28.957Z,8.50
2022-10-10T16:21:55.845Z,8.85
2022-10-10T16:24:22.825Z,7.63
2022-10-10T16:26:49.612Z,7.22
2022-10-10T16:29:18.622Z,6.57
2022-10-10T16:31:45.806Z,6.15
2022-10-10T16:34:15.838Z,7.25
2022-10-10T16:36:42.960Z,7.03
2022-10-10T16:39:10.210Z,6.97
2022-10-10T16:41:52.456Z,7.10
2022-10-10T16:44:19.300Z,7.25
2022-10-10T16:46:46.476Z,7.20
2022-10-10T16:49:16.811Z,7.50
2022-10-10T16:51:43.802Z,7.50
2022-10-10T16:54:10.778Z,8.57
2022-10-10T16:56:37.627Z,7.75
2022-10-10T16:59:04.557Z,8.93
2022-10-10T17:01:31.611Z,9.43
2022-10-10T17:04:00.223Z,9.88
2022-10-10T17:06:32.607Z,10.80
2022-10-10T17:09:02.867Z,10.27
2022-10-10T17:11:30.090Z,10.52
2022-10-10T17:13:57.127Z,11.07
2022-10-10T17:19:13.250Z,11.60
2022-10-10T17:21:40.334Z,11.07
2022-10-10T17:24:07.326Z,13.80
2022-10-10T17:26:34.129Z,13.23
2022-10-10T17:29:00.939Z,13.15
2022-10-10T17:31:28.118Z,14.30
2022-10-10T17:33:57.111Z,15.25
2022-10-10T17:36:28.715Z,13.60
2022-10-10T17:38:56.356Z,12.82
2022-10-10T17:41:24.108Z,11.50
2022-10-10T17:43:51.288Z,11.27
2022-10-10T17:46:34.255Z,11.15
2022-10-10T17:49:01.900Z,10.95
2022-10-10T17:51:28.853Z,9.60
2022-10-10T17:54:00.792Z,9.27
2022-10-10T17:56:28.198Z,12.00
2022-10-10T17:58:55.035Z,11.73
2022-10-10T18:01:22.797Z,11.07
2022-10-10T18:03:49.843Z,11.45
2022-10-10T18:06:20.513Z,11.85
2022-10-10T18:08:48.798Z,9.88
2022-10-10T18:11:17.248Z,10.95
2022-10-10T18:13:45.000Z,11.57
2022-10-10T18:16:14.418Z,10.40
2022-10-10T18:18:46.852Z,11.45
2022-10-10T18:21:16.768Z,12.52
2022-10-10T18:23:43.622Z,10.88
2022-10-10T18:26:16.426Z,10.82
2022-10-10T18:28:43.783Z,13.90
2022-10-10T18:31:16.947Z,14.63
2022-10-10T18:33:44.939Z,12.15
2022-10-10T18:36:13.968Z,12.02
2022-10-10T18:38:41.071Z,13.93
2022-10-10T18:41:11.323Z,12.93
2022-10-10T18:43:39.591Z,13.65
2022-10-10T18:46:08.933Z,14.55
2022-10-10T18:48:36.586Z,14.20
2022-10-10T18:51:11.797Z,13.32
2022-10-10T18:53:40.790Z,12.70
2022-10-10T18:56:08.932Z,12.32
2022-10-10T18:58:37.132Z,16.20
2022-10-10T19:01:07.655Z,15.50
2022-10-10T19:03:36.521Z,16.17
2022-10-10T19:06:06.110Z,19.73
2022-10-10T19:08:34.043Z,17.55
2022-10-10T19:11:04.445Z,17.48
2022-10-10T19:13:32.014Z,16.30
2022-10-10T19:16:06.665Z,16.67
2022-10-10T19:18:34.034Z,17.60
2022-10-10T19:21:02.849Z,15.40
2022-10-10T19:23:30.335Z,15.68
2022-10-10T19:26:02.061Z,15.10
2022-10-10T19:28:29.266Z,16.00
2022-10-10T19:30:56.141Z,17.20
2022-10-10T19:33:23.081Z,17.15
2022-10-10T19:35:52.266Z,17.33
2022-10-10T19:38:19.470Z,17.70
2022-10-10T19:40:47.928Z,19.27
2022-10-10T19:43:17.491Z,16.00
2022-10-10T19:45:47.173Z,15.73
2022-10-10T19:48:15.767Z,16.43
2022-10-10T19:50:44.222Z,16.38
2022-10-10T19:53:13.182Z,18.30
2022-10-10T19:55:41.320Z,20.80
2022-10-10T19:58:08.526Z,18.27
2022-10-10T20:00:37.398Z,18.00
2022-10-10T20:03:04.466Z,16.40
2022-10-10T20:05:31.495Z,15.80
2022-10-10T20:07:58.257Z,16.70
2022-10-10T20:10:25.133Z,15.67
2022-10-10T20:12:52.751Z,15.80
2022-10-10T20:15:19.643Z,14.95
2022-10-10T20:17:46.449Z,16.20
2022-10-10T20:20:13.352Z,14.75
2022-10-10T20:22:40.311Z,16.07
2022-10-10T20:25:07.598Z,16.73
2022-10-10T20:27:34.658Z,16.37
2022-10-10T20:30:01.474Z,16.05
2022-10-10T20:32:28.298Z,17.70
2022-10-10T20:34:55.123Z,16.03
2022-10-10T20:37:21.918Z,18.87
2022-10-10T20:39:48.955Z,17.43
2022-10-10T20:42:15.915Z,17.70
2022-10-10T20:44:42.724Z,16.83
2022-10-10T20:47:09.592Z,16.57
2022-10-10T20:49:36.412Z,18.20
2022-10-10T20:52:03.244Z,14.43
2022-10-10T20:54:30.045Z,15.10
2022-10-10T20:56:56.991Z,15.57
2022-10-10T20:59:24.665Z,16.33
2022-10-10T21:01:51.641Z,16.90
2022-10-10T21:04:18.568Z,16.90
2022-10-10T21:06:46.112Z,15.77
2022-10-10T21:09:14.712Z,16.07
2022-10-10T21:11:41.966Z,16.83
2022-10-10T21:14:09.977Z,15.50
2022-10-10T21:16:39.134Z,17.07
2022-10-10T21:19:09.874Z,16.47
2022-10-10T21:21:37.365Z,19.53
2022-10-10T21:24:07.036Z,17.60
2022-10-10T21:26:34.080Z,17.70
2022-10-10T21:29:01.245Z,17.60
2022-10-10T21:31:30.815Z,19.00
2022-10-10T21:33:59.859Z,18.40
2022-10-10T21:36:27.125Z,18.43
2022-10-10T21:38:54.876Z,19.43
2022-10-10T21:41:22.641Z,21.07
2022-10-10T21:43:52.997Z,21.17
2022-10-10T21:46:23.478Z,21.27
2022-10-10T21:48:52.383Z,17.53
2022-10-10T21:51:20.645Z,17.93
2022-10-10T21:53:48.401Z,20.67
2022-10-10T21:56:15.415Z,20.35
2022-10-10T21:58:45.181Z,20.63
2022-10-10T22:01:13.698Z,19.93
2022-10-10T22:03:41.239Z,19.67
2022-10-10T22:06:13.464Z,19.13
2022-10-10T22:08:42.049Z,18.80
2022-10-10T22:11:11.862Z,19.40
2022-10-10T22:13:39.149Z,16.93
2022-10-10T22:16:07.352Z,18.67
2022-10-10T22:18:34.866Z,18.17
2022-10-10T22:21:03.999Z,19.27
2022-10-10T22:23:30.941Z,18.80
2022-10-10T22:25:58.227Z,19.53
2022-10-10T22:28:25.768Z,20.20
2022-10-10T22:30:52.628Z,20.23
2022-10-10T22:33:19.458Z,19.30
2022-10-10T22:35:46.420Z,19.60
2022-10-10T22:38:13.215Z,18.73
2022-10-10T22:40:40.332Z,18.73
2022-10-10T22:43:07.128Z,17.23
2022-10-10T22:45:34.200Z,20.03
2022-10-10T22:48:01.085Z,19.97
2022-10-10T22:50:27.971Z,19.37
2022-10-10T22:52:54.746Z,19.37
2022-10-10T22:55:21.819Z,20.30
2022-10-10T22:57:49.003Z,18.50
2022-10-10T23:00:16.232Z,20.13
2022-10-10T23:02:43.042Z,18.13
2022-10-10T23:05:09.874Z,18.17
2022-10-10T23:07:36.703Z,16.80
2022-10-10T23:10:04.379Z,17.90
2022-10-10T23:12:31.173Z,17.83
2022-10-10T23:14:58.041Z,19.13
2022-10-10T23:17:24.850Z,20.17
2022-10-10T23:19:51.641Z,19.07
2022-10-10T23:22:18.438Z,19.97
2022-10-10T23:24:45.402Z,19.83
2022-10-10T23:27:12.188Z,16.97
2022-10-10T23:29:38.993Z,17.90
2022-10-10T23:32:05.930Z,19.37
2022-10-10T23:34:32.880Z,19.57
2022-10-10T23:36:59.884Z,19.50
2022-10-10T23:39:26.768Z,18.43
2022-10-10T23:41:53.586Z,18.90
2022-10-10T23:44:20.361Z,16.87
2022-10-10T23:46:47.162Z,19.47
2022-10-10T23:49:13.964Z,18.40
2022-10-10T23:51:40.736Z,18.40
2022-10-10T23:54:07.603Z,18.20
2022-10-10T23:56:34.431Z,18.20
2022-10-10T23:59:01.285Z,19.23
